This is the latest recevied weather packets stored in our database for station/object SQ7ACP-3. If no packets are shown the sender has not sent any weather packets the latest 10 day(s).
| Time | Temp. | Humidity | Pressure | Rain* | Wind** | Luminosity | Snow |
|---|---|---|---|---|---|---|---|
| 1777797512 | 21.11° C | 35% | 1017.6 hPa | 0 mm | - | - | - |
| 1777796912 | 20.56° C | 36% | 1017.6 hPa | 0 mm | - | - | - |
| 1777796299 | 20.56° C | 38% | 1017.6 hPa | 0 mm | - | - | - |
| 1777795700 | 20° C | 39% | 1017.6 hPa | 0 mm | - | - | - |
| 1777795099 | 20° C | 39% | 1017.7 hPa | 0 mm | - | - | - |
| 1777794487 | 20° C | 39% | 1017.7 hPa | 0 mm | - | - | - |
| 1777793887 | 19.44° C | 39% | 1017.8 hPa | 0 mm | - | - | - |
| 1777793287 | 18.89° C | 40% | 1017.7 hPa | 0 mm | - | - | - |
| 1777792674 | 18.89° C | 42% | 1017.7 hPa | 0 mm | - | - | - |
| 1777791462 | 17.78° C | 44% | 1017.8 hPa | 0 mm | - | - | - |
| 1777790862 | 17.22° C | 46% | 1017.9 hPa | 0 mm | - | - | - |
| 1777790249 | 16.67° C | 47% | 1017.9 hPa | 0 mm | - | - | - |
| 1777789637 | 16.11° C | 47% | 1018 hPa | 0 mm | - | - | - |
| 1777789037 | 15.56° C | 49% | 1017.9 hPa | 0 mm | - | - | - |
| 1777788424 | 15° C | 53% | 1018 hPa | 0 mm | - | - | - |
| 1777787824 | 13.89° C | 58% | 1018 hPa | 0 mm | - | - | - |
| 1777787213 | 12.78° C | 61% | 1018.1 hPa | 0 mm | - | - | - |
| 1777786612 | 11.67° C | 65% | 1018.1 hPa | 0 mm | - | - | - |
| 1777785999 | 10.56° C | 68% | 1018.2 hPa | 0 mm | - | - | - |
| 1777785399 | 10° C | 73% | 1018.2 hPa | 0 mm | - | - | - |
| 1777784790 | 8.89° C | 76% | 1018.2 hPa | 0 mm | - | - | - |
| 1777784174 | 7.78° C | 79% | 1018.3 hPa | 0 mm | - | - | - |
| 1777783562 | 7.78° C | 80% | 1018.4 hPa | 0 mm | - | - | - |
| 1777782950 | 7.22° C | 82% | 1018.4 hPa | 0 mm | - | - | - |
| 1777782349 | 6.67° C | 84% | 1018.2 hPa | 0 mm | - | - | - |
* Rain latest hour (hover to see other rain measurements)
** Current wind speed in m/s (hover to see current wind gust speed)